KAUO/AUO METAR and TAF weather

Enter ICAO airport designator
Station Type Date Time Source
KAUO METAR 2019/08/21 21:56 UTC NOAA

KAUO 212156Z AUTO 21008KT 10SM CLR 33/19 A3007 RMK AO2 SLP190 T03280194 PNO $


Station Type Date Time Source
KAUO Decoded METAR 2019/08/21 21:56 UTC NOAA

Station name not available
Aug 21, 2019 - 05:56 PM EDT / 2019.08.21 2156 UTC
Wind: from the SSW (210 degrees) at 9 MPH (8 KT):0
Visibility: 10 mile(s):0
Sky conditions: clear
Temperature: 91.0 F (32.8 C)
Heat index: 94.3 F (34.6 C):1
Dew Point: 66.9 F (19.4 C)
Relative Humidity: 45%
Pressure (altimeter): 30.07 in. Hg (1018 hPa)
ob: KAUO 212156Z AUTO 21008KT 10SM CLR 33/19 A3007 RMK AO2 SLP190 T03280194 PNO
cycle: 22

Station Type Date Time Source
KAUO TAF UTC NOAA

Error!

Example: see airport list